createdAt,value
2017-09-08T00:00:24.987Z,70.80
2017-09-08T00:03:26.298Z,71.20
2017-09-08T00:06:27.640Z,71.30
2017-09-08T00:09:33.030Z,71.40
2017-09-08T00:12:34.370Z,70.70
2017-09-08T00:15:35.696Z,70.70
2017-09-08T00:18:37.044Z,71.00
2017-09-08T00:21:38.349Z,71.30
2017-09-08T00:24:39.686Z,71.00
2017-09-08T00:27:40.984Z,70.90
2017-09-08T00:30:42.362Z,71.60
2017-09-08T00:33:43.698Z,71.20
2017-09-08T00:36:45.068Z,71.00
2017-09-08T00:39:46.431Z,71.10
2017-09-08T00:42:47.769Z,71.40
2017-09-08T00:45:49.128Z,71.20
2017-09-08T00:48:50.466Z,71.40
2017-09-08T00:51:51.948Z,70.90
2017-09-08T00:54:53.231Z,71.30
2017-09-08T00:57:55.261Z,71.00
2017-09-08T01:00:56.527Z,70.90
2017-09-08T01:03:58.578Z,71.40
2017-09-08T01:06:59.847Z,71.30
2017-09-08T01:10:01.898Z,71.70
2017-09-08T01:13:03.134Z,71.60
2017-09-08T01:16:04.446Z,71.60
2017-09-08T01:19:05.770Z,71.40
2017-09-08T01:22:07.791Z,71.60
2017-09-08T01:25:09.039Z,71.50
2017-09-08T01:28:10.434Z,71.40
2017-09-08T01:31:12.437Z,71.30
2017-09-08T01:34:13.695Z,71.30
2017-09-08T01:37:14.958Z,71.50
2017-09-08T01:40:16.230Z,71.70
2017-09-08T01:43:18.201Z,70.80
2017-09-08T01:46:20.247Z,71.50
2017-09-08T01:49:21.495Z,71.50
2017-09-08T01:52:22.813Z,71.50
2017-09-08T01:55:24.054Z,71.60
2017-09-08T01:58:25.338Z,71.40
2017-09-08T02:01:26.590Z,71.70
2017-09-08T02:04:27.878Z,71.40
2017-09-08T02:07:29.150Z,71.70
2017-09-08T02:10:30.670Z,72.30
2017-09-08T02:13:31.918Z,71.90
2017-09-08T02:16:33.178Z,71.90
2017-09-08T02:19:34.453Z,71.60
2017-09-08T02:22:35.765Z,72.00
2017-09-08T02:25:37.790Z,71.60
2017-09-08T02:28:39.067Z,71.60
2017-09-08T02:31:41.081Z,71.70
2017-09-08T02:34:42.374Z,71.70
2017-09-08T02:37:44.373Z,71.20
2017-09-08T02:40:45.638Z,71.70
2017-09-08T02:43:46.910Z,71.60
2017-09-08T02:46:48.213Z,71.70
2017-09-08T02:49:49.448Z,71.60
2017-09-08T02:52:58.443Z,71.20
2017-09-08T02:55:59.674Z,71.20
2017-09-08T02:59:00.973Z,71.70
2017-09-08T03:02:02.997Z,71.50
2017-09-08T03:05:04.523Z,71.50
2017-09-08T03:08:05.790Z,71.60
2017-09-08T03:11:07.070Z,72.40
2017-09-08T03:14:09.098Z,71.70
2017-09-08T03:17:10.373Z,71.80
2017-09-08T03:20:11.615Z,71.70
2017-09-08T03:23:12.933Z,71.60
2017-09-08T03:26:14.176Z,71.70
2017-09-08T03:29:15.486Z,71.70
2017-09-08T03:32:17.489Z,72.00
2017-09-08T03:35:18.762Z,71.90
2017-09-08T03:38:20.271Z,72.40
2017-09-08T03:41:21.503Z,72.00
2017-09-08T03:44:23.558Z,72.00
2017-09-08T03:47:24.807Z,71.90
2017-09-08T03:50:26.850Z,71.70
2017-09-08T03:53:28.114Z,71.80
2017-09-08T03:56:29.387Z,72.40
2017-09-08T03:59:31.389Z,72.10
2017-09-08T04:02:32.690Z,72.00
2017-09-08T04:05:34.674Z,72.00
2017-09-08T04:08:36.670Z,71.80
2017-09-08T04:11:37.920Z,71.70
2017-09-08T04:14:39.238Z,71.80
2017-09-08T04:17:40.512Z,72.20
2017-09-08T04:20:41.790Z,72.30
2017-09-08T04:23:43.031Z,72.30
2017-09-08T04:26:44.310Z,72.60
2017-09-08T04:29:45.554Z,72.40
2017-09-08T04:32:47.600Z,72.20
2017-09-08T04:35:49.006Z,72.10
2017-09-08T04:38:50.262Z,72.20
2017-09-08T04:41:51.515Z,72.60
2017-09-08T04:44:52.823Z,72.50
2017-09-08T04:47:54.857Z,72.70
2017-09-08T04:50:56.091Z,72.50
2017-09-08T04:53:57.504Z,72.60
2017-09-08T04:56:59.526Z,72.30
2017-09-08T05:00:00.862Z,72.30
2017-09-08T05:03:02.163Z,72.40
2017-09-08T05:06:04.334Z,72.40
2017-09-08T05:09:05.630Z,72.30
2017-09-08T05:12:06.936Z,72.30
2017-09-08T05:15:16.078Z,72.30
2017-09-08T05:18:17.365Z,72.30
2017-09-08T05:21:18.603Z,72.20
2017-09-08T05:24:19.920Z,72.10
2017-09-08T05:27:21.210Z,72.00
2017-09-08T05:30:22.474Z,71.90
2017-09-08T05:33:23.707Z,72.10
2017-09-08T05:36:25.006Z,71.90
2017-09-08T05:39:27.137Z,72.10
2017-09-08T05:42:28.389Z,72.10
2017-09-08T05:45:29.742Z,72.80
2017-09-08T05:48:31.006Z,72.40
2017-09-08T05:51:33.078Z,72.60
2017-09-08T05:54:35.063Z,72.00
2017-09-08T05:57:36.629Z,71.90
2017-09-08T06:00:37.918Z,71.90
2017-09-08T06:03:39.190Z,72.10
2017-09-08T06:06:41.190Z,72.40
2017-09-08T06:09:42.482Z,72.00
2017-09-08T06:12:43.769Z,71.70
2017-09-08T06:15:45.918Z,72.30
2017-09-08T06:18:47.929Z,72.80
2017-09-08T06:21:49.202Z,72.70
2017-09-08T06:24:50.469Z,72.60
2017-09-08T06:27:51.951Z,73.10
2017-09-08T06:30:53.920Z,73.00
2017-09-08T06:33:55.206Z,72.50
2017-09-08T06:36:56.474Z,73.50
2017-09-08T06:39:57.746Z,73.40
2017-09-08T06:42:59.750Z,73.30
2017-09-08T06:46:01.046Z,73.30
2017-09-08T06:49:02.530Z,72.70
2017-09-08T06:52:04.530Z,72.50
2017-09-08T06:55:05.845Z,72.50
2017-09-08T06:58:07.826Z,72.50
2017-09-08T07:01:09.138Z,72.50
2017-09-08T07:04:11.157Z,72.40
2017-09-08T07:07:12.554Z,72.30
2017-09-08T07:10:13.826Z,72.30
2017-09-08T07:13:15.094Z,72.60
2017-09-08T07:16:16.330Z,72.80
2017-09-08T07:19:17.663Z,73.10
2017-09-08T07:22:18.943Z,72.90
2017-09-08T07:25:20.247Z,73.10
2017-09-08T07:28:21.525Z,73.20
2017-09-08T07:31:22.797Z,73.30
2017-09-08T07:34:24.522Z,73.30
2017-09-08T07:37:26.529Z,73.70
2017-09-08T07:40:27.809Z,73.60
2017-09-08T07:43:29.061Z,73.30
2017-09-08T07:46:31.099Z,73.30
2017-09-08T07:49:32.334Z,73.00
2017-09-08T07:52:33.591Z,73.00
2017-09-08T07:55:34.838Z,73.00
2017-09-08T07:58:36.142Z,72.30
2017-09-08T08:01:38.111Z,72.20
2017-09-08T08:04:39.401Z,72.20
2017-09-08T08:07:40.662Z,72.20
2017-09-08T08:10:41.965Z,72.40
2017-09-08T08:13:43.207Z,72.60
2017-09-08T08:16:44.506Z,73.30
2017-09-08T08:19:46.515Z,74.00
2017-09-08T08:22:47.813Z,73.80
2017-09-08T08:25:49.087Z,74.10
2017-09-08T08:28:50.358Z,74.20
2017-09-08T08:31:52.351Z,74.80
2017-09-08T08:34:53.619Z,74.80
2017-09-08T08:37:54.882Z,74.70
2017-09-08T08:40:56.150Z,74.30
2017-09-08T08:43:58.562Z,75.40
2017-09-08T08:46:59.838Z,75.30
2017-09-08T08:50:01.110Z,75.30
2017-09-08T08:53:02.373Z,75.90
2017-09-08T08:56:04.406Z,76.10
2017-09-08T08:59:05.662Z,76.10
2017-09-08T09:02:06.935Z,75.90
2017-09-08T09:05:09.122Z,75.60
2017-09-08T09:08:10.381Z,75.60
2017-09-08T09:11:11.755Z,76.00
2017-09-08T09:14:12.993Z,76.70
2017-09-08T09:17:14.246Z,75.90
2017-09-08T09:20:15.514Z,75.90
2017-09-08T09:23:16.791Z,75.20
2017-09-08T09:26:18.836Z,75.30
2017-09-08T09:29:20.123Z,74.50
2017-09-08T09:32:21.389Z,74.50
2017-09-08T09:35:22.691Z,75.10
2017-09-08T09:38:23.930Z,73.90
2017-09-08T09:41:25.225Z,74.00
2017-09-08T09:44:26.530Z,73.30
2017-09-08T09:47:27.877Z,73.80
2017-09-08T09:50:29.110Z,73.30
2017-09-08T09:53:31.151Z,73.20
2017-09-08T09:56:32.384Z,73.20
2017-09-08T09:59:33.655Z,73.40
2017-09-08T10:02:35.046Z,73.00
2017-09-08T10:05:36.278Z,73.40
2017-09-08T10:08:37.634Z,73.30
2017-09-08T10:11:38.885Z,72.70
2017-09-08T10:14:40.160Z,72.70
2017-09-08T10:17:41.457Z,73.60
2017-09-08T10:20:43.079Z,73.40
2017-09-08T10:23:44.342Z,73.60
2017-09-08T10:26:45.633Z,73.90
2017-09-08T10:29:46.871Z,73.80
2017-09-08T10:32:48.190Z,73.90
2017-09-08T10:35:49.433Z,74.50
2017-09-08T10:38:50.826Z,74.90
2017-09-08T10:41:52.082Z,76.10
2017-09-08T10:44:53.374Z,76.70
2017-09-08T10:47:54.632Z,77.20
2017-09-08T10:50:56.046Z,78.40
2017-09-08T10:53:58.059Z,78.90
2017-09-08T10:56:59.314Z,78.60
2017-09-08T11:00:00.550Z,78.40
2017-09-08T11:03:01.811Z,78.30
2017-09-08T11:06:03.043Z,78.70
2017-09-08T11:09:05.085Z,79.50
2017-09-08T11:12:07.110Z,79.60
2017-09-08T11:15:08.369Z,79.60
2017-09-08T11:18:09.666Z,80.40
2017-09-08T11:21:10.919Z,80.60
2017-09-08T11:24:12.929Z,84.00
2017-09-08T11:27:14.202Z,83.90
2017-09-08T11:30:16.226Z,84.90
2017-09-08T11:33:23.770Z,84.90
2017-09-08T11:36:31.942Z,84.90
2017-09-08T11:39:33.278Z,84.90
2017-09-08T11:42:34.565Z,86.00
2017-09-08T11:45:35.909Z,85.40
2017-09-08T11:48:37.151Z,86.10
2017-09-08T11:51:38.449Z,86.90
2017-09-08T11:54:40.454Z,87.50
2017-09-08T11:57:41.719Z,87.30
2017-09-08T12:00:43.019Z,86.50
2017-09-08T12:03:44.274Z,87.00
2017-09-08T12:06:45.526Z,87.10
2017-09-08T12:09:46.779Z,87.60
2017-09-08T12:12:48.258Z,86.70
2017-09-08T12:15:49.530Z,86.90
2017-09-08T12:18:50.778Z,87.40
2017-09-08T12:21:52.053Z,87.70
2017-09-08T12:24:54.050Z,87.90
2017-09-08T12:27:55.303Z,87.80
2017-09-08T12:30:56.615Z,87.90
2017-09-08T12:33:58.678Z,88.10
2017-09-08T12:37:00.691Z,88.90
2017-09-08T12:40:02.102Z,88.90
2017-09-08T12:43:03.370Z,88.70
2017-09-08T12:46:04.718Z,88.50
2017-09-08T12:49:05.958Z,89.70
2017-09-08T12:52:07.246Z,88.30
2017-09-08T12:55:08.498Z,89.20
2017-09-08T12:58:09.818Z,88.70
2017-09-08T13:01:11.067Z,88.60
2017-09-08T13:04:12.335Z,89.40
2017-09-08T13:07:13.583Z,89.30
2017-09-08T13:10:14.873Z,90.00
2017-09-08T13:13:16.868Z,89.30
2017-09-08T13:16:18.219Z,89.20
2017-09-08T13:19:19.863Z,89.00
2017-09-08T13:22:21.122Z,89.90
2017-09-08T13:25:22.382Z,89.40
2017-09-08T13:28:23.634Z,89.80
2017-09-08T13:31:24.939Z,90.10
2017-09-08T13:34:26.949Z,89.70
2017-09-08T13:37:28.221Z,89.60
2017-09-08T13:40:29.497Z,89.70
2017-09-08T13:43:31.482Z,89.90
2017-09-08T13:46:32.750Z,89.80
2017-09-08T13:49:33.994Z,89.10
2017-09-08T13:52:35.230Z,89.80
2017-09-08T13:55:36.516Z,89.50
2017-09-08T13:58:37.758Z,89.60
2017-09-08T14:01:39.030Z,89.20
2017-09-08T14:04:40.313Z,89.30
2017-09-08T14:07:41.578Z,89.40
2017-09-08T14:10:42.865Z,90.10
2017-09-08T14:13:44.087Z,90.10
2017-09-08T14:16:45.526Z,90.10
2017-09-08T14:19:46.770Z,90.40
2017-09-08T14:22:48.029Z,90.60
2017-09-08T14:25:49.289Z,90.30
2017-09-08T14:28:50.570Z,90.10
2017-09-08T14:31:52.586Z,90.30
2017-09-08T14:34:53.865Z,90.30
2017-09-08T14:37:55.126Z,90.20
2017-09-08T14:40:56.423Z,90.10
2017-09-08T14:43:57.703Z,90.60
2017-09-08T14:46:58.999Z,90.50
2017-09-08T14:50:01.021Z,90.70
2017-09-08T14:53:02.290Z,91.00
2017-09-08T14:56:03.539Z,90.70
2017-09-08T14:59:04.837Z,90.70
2017-09-08T15:02:06.475Z,90.80
2017-09-08T15:05:08.478Z,91.00
2017-09-08T15:08:09.898Z,91.00
2017-09-08T15:11:11.169Z,90.70
2017-09-08T15:14:12.430Z,90.80
2017-09-08T15:17:13.734Z,91.10
2017-09-08T15:20:15.764Z,90.80
2017-09-08T15:23:17.065Z,90.80
2017-09-08T15:26:18.381Z,90.50
2017-09-08T15:29:20.371Z,90.90
2017-09-08T15:32:21.661Z,90.90
2017-09-08T15:35:22.955Z,90.80
2017-09-08T15:38:24.966Z,90.70
2017-09-08T15:41:26.397Z,90.70
2017-09-08T15:44:27.623Z,90.80
2017-09-08T15:47:29.662Z,91.10
2017-09-08T15:50:30.933Z,91.10
2017-09-08T15:53:32.973Z,91.00
2017-09-08T15:56:34.202Z,91.00
2017-09-08T15:59:35.507Z,90.90
2017-09-08T16:02:37.497Z,91.30
2017-09-08T16:05:38.775Z,91.30
2017-09-08T16:08:40.074Z,91.00
2017-09-08T16:11:41.375Z,90.90
2017-09-08T16:14:42.675Z,91.10
2017-09-08T16:17:43.935Z,90.70
2017-09-08T16:20:45.205Z,91.00
2017-09-08T16:23:46.542Z,91.20
2017-09-08T16:26:47.922Z,90.90
2017-09-08T16:29:49.257Z,91.20
2017-09-08T16:32:51.393Z,91.10
2017-09-08T16:35:52.659Z,91.10
2017-09-08T16:38:53.942Z,91.10
2017-09-08T16:41:55.214Z,91.00
2017-09-08T16:44:57.246Z,90.80
2017-09-08T16:47:58.502Z,90.80
2017-09-08T16:50:59.759Z,90.20
2017-09-08T16:54:01.023Z,90.60
2017-09-08T16:57:03.116Z,90.40
2017-09-08T17:00:04.394Z,90.30
2017-09-08T17:03:05.706Z,90.60
2017-09-08T17:06:06.953Z,90.20
2017-09-08T17:09:08.362Z,91.00
2017-09-08T17:12:09.631Z,90.80
2017-09-08T17:15:11.666Z,90.70
2017-09-08T17:18:12.929Z,90.60
2017-09-08T17:21:14.204Z,90.00
2017-09-08T17:24:16.226Z,90.60
2017-09-08T17:27:17.594Z,90.50
2017-09-08T17:30:18.869Z,90.20
2017-09-08T17:33:20.905Z,90.50
2017-09-08T17:36:22.154Z,90.50
2017-09-08T17:39:23.441Z,90.50
2017-09-08T17:42:25.489Z,90.80
2017-09-08T17:45:27.522Z,90.80
2017-09-08T17:48:28.833Z,90.70
2017-09-08T17:51:30.103Z,91.00
2017-09-08T17:54:31.384Z,91.10
2017-09-08T17:57:33.450Z,91.10
2017-09-08T18:00:34.878Z,91.10
2017-09-08T18:03:36.149Z,91.20
2017-09-08T18:06:37.431Z,91.40
2017-09-08T18:09:38.685Z,91.40
2017-09-08T18:12:40.002Z,91.30
2017-09-08T18:15:41.994Z,91.40
2017-09-08T18:18:44.094Z,90.90
2017-09-08T18:21:45.331Z,90.90
2017-09-08T18:24:46.635Z,91.00
2017-09-08T18:27:47.894Z,91.20
2017-09-08T18:30:49.958Z,91.30
2017-09-08T18:33:51.939Z,91.00
2017-09-08T18:36:53.222Z,91.00
2017-09-08T18:39:54.503Z,90.80
2017-09-08T18:42:55.780Z,91.20
2017-09-08T18:45:57.787Z,91.00
2017-09-08T18:48:59.130Z,91.00
2017-09-08T18:52:00.382Z,90.60
2017-09-08T18:55:01.642Z,90.50
2017-09-08T18:58:02.970Z,90.40
2017-09-08T19:01:04.283Z,90.30
2017-09-08T19:04:06.265Z,90.10
2017-09-08T19:07:07.544Z,90.10
2017-09-08T19:10:08.986Z,90.20
2017-09-08T19:13:10.242Z,90.50
2017-09-08T19:16:11.762Z,90.30
2017-09-08T19:19:13.753Z,90.70
2017-09-08T19:22:15.079Z,90.70
2017-09-08T19:25:17.098Z,90.60
2017-09-08T19:28:18.376Z,90.50
2017-09-08T19:31:20.370Z,91.30
2017-09-08T19:34:21.649Z,91.30
2017-09-08T19:37:22.938Z,91.40
2017-09-08T19:40:24.971Z,91.70
2017-09-08T19:43:26.269Z,91.70
2017-09-08T19:46:28.288Z,91.60
2017-09-08T19:49:29.784Z,91.50
2017-09-08T19:52:31.823Z,91.50
2017-09-08T19:55:33.289Z,91.50
2017-09-08T19:58:35.275Z,91.40
2017-09-08T20:01:36.571Z,91.30
2017-09-08T20:04:37.850Z,91.30
2017-09-08T20:07:39.869Z,91.20
2017-09-08T20:10:42.073Z,91.20
2017-09-08T20:13:43.339Z,90.80
2017-09-08T20:16:45.439Z,91.10
2017-09-08T20:19:46.859Z,91.10
2017-09-08T20:22:49.856Z,91.10
2017-09-08T20:25:51.894Z,91.40
2017-09-08T20:28:53.309Z,91.40
2017-09-08T20:31:54.646Z,91.70
2017-09-08T20:34:55.957Z,91.90
2017-09-08T20:37:57.976Z,91.40
2017-09-08T20:40:59.294Z,91.60
2017-09-08T20:44:01.343Z,91.60
2017-09-08T20:47:03.428Z,91.40
2017-09-08T20:50:05.549Z,91.50
2017-09-08T20:53:06.862Z,91.50
2017-09-08T20:56:08.328Z,91.70
2017-09-08T20:59:10.387Z,91.60
2017-09-08T21:02:11.859Z,91.60
2017-09-08T21:05:13.172Z,91.50
2017-09-08T21:08:14.533Z,91.80
2017-09-08T21:11:15.863Z,91.40
2017-09-08T21:14:17.331Z,91.40
2017-09-08T21:17:18.649Z,91.80
2017-09-08T21:20:20.026Z,91.40
2017-09-08T21:23:21.322Z,91.60
2017-09-08T21:26:22.666Z,91.60
2017-09-08T21:29:24.698Z,91.70
2017-09-08T21:32:25.984Z,91.70
2017-09-08T21:35:27.298Z,91.60
2017-09-08T21:38:28.659Z,91.40
2017-09-08T21:41:29.977Z,91.60
2017-09-08T21:44:31.294Z,91.60
2017-09-08T21:47:32.609Z,91.60
2017-09-08T21:50:34.018Z,91.80
2017-09-08T21:53:35.283Z,91.80
2017-09-08T21:56:36.757Z,91.60
2017-09-08T21:59:38.062Z,91.60
2017-09-08T22:02:39.401Z,91.80
2017-09-08T22:05:40.684Z,91.90
2017-09-08T22:08:42.014Z,91.60
2017-09-08T22:11:43.282Z,91.70
2017-09-08T22:14:44.587Z,91.50
2017-09-08T22:17:46.602Z,91.90
2017-09-08T22:20:47.905Z,91.90
2017-09-08T22:23:49.326Z,91.60
2017-09-08T22:26:50.574Z,91.40
2017-09-08T22:29:51.874Z,91.10
2017-09-08T22:32:53.974Z,91.10
2017-09-08T22:35:55.489Z,91.60
2017-09-08T22:38:56.764Z,91.30
2017-09-08T22:41:58.035Z,91.00
2017-09-08T22:44:59.369Z,91.10
2017-09-08T22:48:00.643Z,90.90
2017-09-08T22:51:01.925Z,91.20
2017-09-08T22:54:04.102Z,90.80
2017-09-08T22:57:12.481Z,90.80
2017-09-08T23:00:13.755Z,90.90
2017-09-08T23:03:15.023Z,90.90
2017-09-08T23:06:16.326Z,91.50
2017-09-08T23:09:17.591Z,91.10
2017-09-08T23:12:18.885Z,91.00
2017-09-08T23:15:20.938Z,91.00
2017-09-08T23:18:22.210Z,91.00
2017-09-08T23:21:24.321Z,90.80
2017-09-08T23:24:25.603Z,90.70
2017-09-08T23:27:26.852Z,90.70
2017-09-08T23:30:28.139Z,91.00
2017-09-08T23:33:29.368Z,90.90
2017-09-08T23:36:31.778Z,90.90
2017-09-08T23:39:33.134Z,90.90
2017-09-08T23:42:34.387Z,90.70
2017-09-08T23:45:35.691Z,90.90
2017-09-08T23:48:37.767Z,90.80
2017-09-08T23:51:39.795Z,90.60
2017-09-08T23:54:41.071Z,90.90
2017-09-08T23:57:43.073Z,90.80
